sensor_id;sensor_type;location;lat;lon;timestamp;temperature;humidity
4643;DHT22;2334;48.710;9.622;2023-08-06T00:01:00;16.40;99.90
4643;DHT22;2334;48.710;9.622;2023-08-06T00:03:28;16.50;99.90
4643;DHT22;2334;48.710;9.622;2023-08-06T00:05:55;16.50;99.90
4643;DHT22;2334;48.710;9.622;2023-08-06T00:08:22;16.50;99.90
4643;DHT22;2334;48.710;9.622;2023-08-06T00:10:49;16.50;99.90
4643;DHT22;2334;48.710;9.622;2023-08-06T00:13:16;16.40;99.90
4643;DHT22;2334;48.710;9.622;2023-08-06T00:15:42;16.40;99.90
4643;DHT22;2334;48.710;9.622;2023-08-06T00:18:09;16.30;99.90
4643;DHT22;2334;48.710;9.622;2023-08-06T00:20:40;16.30;99.90
4643;DHT22;2334;48.710;9.622;2023-08-06T00:23:07;16.30;99.90
4643;DHT22;2334;48.710;9.622;2023-08-06T00:25:34;16.30;99.90
4643;DHT22;2334;48.710;9.622;2023-08-06T00:28:01;16.30;99.90
4643;DHT22;2334;48.710;9.622;2023-08-06T00:30:28;16.20;99.90
4643;DHT22;2334;48.710;9.622;2023-08-06T00:32:55;16.20;99.90
4643;DHT22;2334;48.710;9.622;2023-08-06T00:35:22;16.20;99.90
4643;DHT22;2334;48.710;9.622;2023-08-06T00:37:50;16.20;99.90
4643;DHT22;2334;48.710;9.622;2023-08-06T00:40:20;16.20;99.90
4643;DHT22;2334;48.710;9.622;2023-08-06T00:42:47;16.20;99.90
4643;DHT22;2334;48.710;9.622;2023-08-06T00:45:13;16.30;99.90
4643;DHT22;2334;48.710;9.622;2023-08-06T00:47:41;16.30;99.90
4643;DHT22;2334;48.710;9.622;2023-08-06T00:50:08;16.30;99.90
4643;DHT22;2334;48.710;9.622;2023-08-06T00:52:36;16.20;99.90
4643;DHT22;2334;48.710;9.622;2023-08-06T00:55:06;16.20;99.90
4643;DHT22;2334;48.710;9.622;2023-08-06T00:57:33;16.20;99.90
4643;DHT22;2334;48.710;9.622;2023-08-06T01:00:00;16.30;99.90
4643;DHT22;2334;48.710;9.622;2023-08-06T01:02:27;16.30;99.90
4643;DHT22;2334;48.710;9.622;2023-08-06T01:04:54;16.30;99.90
4643;DHT22;2334;48.710;9.622;2023-08-06T01:07:30;16.20;99.90
4643;DHT22;2334;48.710;9.622;2023-08-06T01:10:15;16.20;99.90
4643;DHT22;2334;48.710;9.622;2023-08-06T01:12:52;16.20;99.90
4643;DHT22;2334;48.710;9.622;2023-08-06T01:15:24;16.10;99.90
4643;DHT22;2334;48.710;9.622;2023-08-06T01:17:54;16.10;99.90
4643;DHT22;2334;48.710;9.622;2023-08-06T01:20:22;16.00;99.90
4643;DHT22;2334;48.710;9.622;2023-08-06T01:22:50;15.90;99.90
4643;DHT22;2334;48.710;9.622;2023-08-06T01:25:17;15.90;99.90
4643;DHT22;2334;48.710;9.622;2023-08-06T01:27:47;15.80;99.90
4643;DHT22;2334;48.710;9.622;2023-08-06T01:30:17;15.80;99.90
4643;DHT22;2334;48.710;9.622;2023-08-06T01:32:46;15.80;99.90
4643;DHT22;2334;48.710;9.622;2023-08-06T01:35:16;15.80;99.90
4643;DHT22;2334;48.710;9.622;2023-08-06T01:37:44;15.70;99.90
4643;DHT22;2334;48.710;9.622;2023-08-06T01:40:13;15.70;99.90
4643;DHT22;2334;48.710;9.622;2023-08-06T01:42:40;15.60;99.90
4643;DHT22;2334;48.710;9.622;2023-08-06T01:45:08;15.50;99.90
4643;DHT22;2334;48.710;9.622;2023-08-06T01:47:35;15.50;99.90
4643;DHT22;2334;48.710;9.622;2023-08-06T01:50:03;15.40;99.90
4643;DHT22;2334;48.710;9.622;2023-08-06T01:52:30;15.40;99.90
4643;DHT22;2334;48.710;9.622;2023-08-06T01:54:57;15.30;99.90
4643;DHT22;2334;48.710;9.622;2023-08-06T01:57:25;15.30;99.90
4643;DHT22;2334;48.710;9.622;2023-08-06T01:59:52;15.20;99.90
4643;DHT22;2334;48.710;9.622;2023-08-06T02:02:18;15.20;99.90
4643;DHT22;2334;48.710;9.622;2023-08-06T02:04:45;15.20;99.90
4643;DHT22;2334;48.710;9.622;2023-08-06T02:07:12;15.20;99.90
4643;DHT22;2334;48.710;9.622;2023-08-06T02:09:39;15.10;99.90
4643;DHT22;2334;48.710;9.622;2023-08-06T02:12:07;15.00;99.90
4643;DHT22;2334;48.710;9.622;2023-08-06T02:14:35;15.00;99.90
4643;DHT22;2334;48.710;9.622;2023-08-06T02:17:02;14.90;99.90
4643;DHT22;2334;48.710;9.622;2023-08-06T02:19:29;14.90;99.90
4643;DHT22;2334;48.710;9.622;2023-08-06T02:21:56;14.90;99.90
4643;DHT22;2334;48.710;9.622;2023-08-06T02:24:22;15.00;99.90
4643;DHT22;2334;48.710;9.622;2023-08-06T02:26:49;15.00;99.90
4643;DHT22;2334;48.710;9.622;2023-08-06T02:29:17;15.10;99.90
4643;DHT22;2334;48.710;9.622;2023-08-06T02:31:45;15.20;99.90
4643;DHT22;2334;48.710;9.622;2023-08-06T02:34:12;15.20;99.90
4643;DHT22;2334;48.710;9.622;2023-08-06T02:36:38;15.20;99.90
4643;DHT22;2334;48.710;9.622;2023-08-06T02:39:05;15.30;99.90
4643;DHT22;2334;48.710;9.622;2023-08-06T02:41:32;15.30;99.90
4643;DHT22;2334;48.710;9.622;2023-08-06T02:43:59;15.30;99.90
4643;DHT22;2334;48.710;9.622;2023-08-06T02:46:26;15.30;99.90
4643;DHT22;2334;48.710;9.622;2023-08-06T02:48:54;15.30;99.90
4643;DHT22;2334;48.710;9.622;2023-08-06T02:51:21;15.20;99.90
4643;DHT22;2334;48.710;9.622;2023-08-06T02:53:48;15.20;99.90
4643;DHT22;2334;48.710;9.622;2023-08-06T02:56:15;15.20;99.90
4643;DHT22;2334;48.710;9.622;2023-08-06T02:58:42;15.20;99.90
4643;DHT22;2334;48.710;9.622;2023-08-06T03:01:09;15.20;99.90
4643;DHT22;2334;48.710;9.622;2023-08-06T03:03:35;15.10;99.90
4643;DHT22;2334;48.710;9.622;2023-08-06T03:06:04;15.00;99.90
4643;DHT22;2334;48.710;9.622;2023-08-06T03:08:31;15.00;99.90
4643;DHT22;2334;48.710;9.622;2023-08-06T03:10:57;14.90;99.90
4643;DHT22;2334;48.710;9.622;2023-08-06T03:13:24;14.80;99.90
4643;DHT22;2334;48.710;9.622;2023-08-06T03:15:52;14.80;99.90
4643;DHT22;2334;48.710;9.622;2023-08-06T03:18:19;14.80;99.90
4643;DHT22;2334;48.710;9.622;2023-08-06T03:20:46;14.80;99.90
4643;DHT22;2334;48.710;9.622;2023-08-06T03:23:15;14.80;99.90
4643;DHT22;2334;48.710;9.622;2023-08-06T03:25:41;14.70;99.90
4643;DHT22;2334;48.710;9.622;2023-08-06T03:28:08;14.60;99.90
4643;DHT22;2334;48.710;9.622;2023-08-06T03:30:35;14.60;99.90
4643;DHT22;2334;48.710;9.622;2023-08-06T03:33:02;14.60;99.90
4643;DHT22;2334;48.710;9.622;2023-08-06T03:35:29;14.50;99.90
4643;DHT22;2334;48.710;9.622;2023-08-06T03:37:56;14.40;99.90
4643;DHT22;2334;48.710;9.622;2023-08-06T03:40:25;14.20;99.90
4643;DHT22;2334;48.710;9.622;2023-08-06T03:42:51;14.30;99.90
4643;DHT22;2334;48.710;9.622;2023-08-06T03:45:18;14.30;99.90
4643;DHT22;2334;48.710;9.622;2023-08-06T03:47:45;14.30;99.90
4643;DHT22;2334;48.710;9.622;2023-08-06T03:50:12;14.30;99.90
4643;DHT22;2334;48.710;9.622;2023-08-06T03:52:39;14.30;99.90
4643;DHT22;2334;48.710;9.622;2023-08-06T03:55:06;14.30;99.90
4643;DHT22;2334;48.710;9.622;2023-08-06T03:57:34;14.40;99.90
4643;DHT22;2334;48.710;9.622;2023-08-06T04:00:01;14.50;99.90
4643;DHT22;2334;48.710;9.622;2023-08-06T04:02:29;14.50;99.90
4643;DHT22;2334;48.710;9.622;2023-08-06T04:04:56;14.60;99.90
4643;DHT22;2334;48.710;9.622;2023-08-06T04:07:24;14.60;99.90
4643;DHT22;2334;48.710;9.622;2023-08-06T04:09:53;14.70;99.90
4643;DHT22;2334;48.710;9.622;2023-08-06T04:12:20;14.80;99.90
4643;DHT22;2334;48.710;9.622;2023-08-06T04:14:49;14.80;99.90
4643;DHT22;2334;48.710;9.622;2023-08-06T04:17:16;14.80;99.90
4643;DHT22;2334;48.710;9.622;2023-08-06T04:19:46;14.80;99.90
4643;DHT22;2334;48.710;9.622;2023-08-06T04:22:13;14.80;99.90
4643;DHT22;2334;48.710;9.622;2023-08-06T04:24:40;14.80;99.90
4643;DHT22;2334;48.710;9.622;2023-08-06T04:27:07;14.80;99.90
4643;DHT22;2334;48.710;9.622;2023-08-06T04:29:34;14.80;99.90
4643;DHT22;2334;48.710;9.622;2023-08-06T04:32:05;14.80;99.90
4643;DHT22;2334;48.710;9.622;2023-08-06T04:34:33;14.80;99.90
4643;DHT22;2334;48.710;9.622;2023-08-06T04:37:00;14.90;99.90
4643;DHT22;2334;48.710;9.622;2023-08-06T04:39:27;14.90;99.90
4643;DHT22;2334;48.710;9.622;2023-08-06T04:41:55;15.00;99.90
4643;DHT22;2334;48.710;9.622;2023-08-06T04:44:22;14.90;99.90
4643;DHT22;2334;48.710;9.622;2023-08-06T04:46:49;14.90;99.90
4643;DHT22;2334;48.710;9.622;2023-08-06T04:49:17;14.90;99.90
4643;DHT22;2334;48.710;9.622;2023-08-06T04:51:44;14.80;99.90
4643;DHT22;2334;48.710;9.622;2023-08-06T04:54:10;14.80;99.90
4643;DHT22;2334;48.710;9.622;2023-08-06T04:56:37;14.80;99.90
4643;DHT22;2334;48.710;9.622;2023-08-06T04:59:04;14.80;99.90
4643;DHT22;2334;48.710;9.622;2023-08-06T05:01:31;14.90;99.90
4643;DHT22;2334;48.710;9.622;2023-08-06T05:03:58;14.90;99.90
4643;DHT22;2334;48.710;9.622;2023-08-06T05:06:26;14.90;99.90
4643;DHT22;2334;48.710;9.622;2023-08-06T05:08:53;14.90;99.90
4643;DHT22;2334;48.710;9.622;2023-08-06T05:11:20;14.90;99.90
4643;DHT22;2334;48.710;9.622;2023-08-06T05:13:46;15.00;99.90
4643;DHT22;2334;48.710;9.622;2023-08-06T05:16:13;15.00;99.90
4643;DHT22;2334;48.710;9.622;2023-08-06T05:18:40;15.00;99.90
4643;DHT22;2334;48.710;9.622;2023-08-06T05:21:07;14.90;99.90
4643;DHT22;2334;48.710;9.622;2023-08-06T05:23:35;14.80;99.90
4643;DHT22;2334;48.710;9.622;2023-08-06T05:26:02;14.90;99.90
4643;DHT22;2334;48.710;9.622;2023-08-06T05:28:29;14.80;99.90
4643;DHT22;2334;48.710;9.622;2023-08-06T05:30:56;14.80;99.90
4643;DHT22;2334;48.710;9.622;2023-08-06T05:33:23;14.80;99.90
4643;DHT22;2334;48.710;9.622;2023-08-06T05:35:50;14.70;99.90
4643;DHT22;2334;48.710;9.622;2023-08-06T05:38:17;14.80;99.90
4643;DHT22;2334;48.710;9.622;2023-08-06T05:40:45;14.80;99.90
4643;DHT22;2334;48.710;9.622;2023-08-06T05:43:12;14.80;99.90
4643;DHT22;2334;48.710;9.622;2023-08-06T05:45:38;14.90;99.90
4643;DHT22;2334;48.710;9.622;2023-08-06T05:48:05;14.90;99.90
4643;DHT22;2334;48.710;9.622;2023-08-06T05:50:32;15.00;99.90
4643;DHT22;2334;48.710;9.622;2023-08-06T05:52:59;15.10;99.90
4643;DHT22;2334;48.710;9.622;2023-08-06T05:55:26;15.40;99.90
4643;DHT22;2334;48.710;9.622;2023-08-06T05:57:54;15.30;99.90
4643;DHT22;2334;48.710;9.622;2023-08-06T06:00:21;15.40;99.90
4643;DHT22;2334;48.710;9.622;2023-08-06T06:02:48;15.20;99.90
4643;DHT22;2334;48.710;9.622;2023-08-06T06:05:15;15.30;99.90
4643;DHT22;2334;48.710;9.622;2023-08-06T06:07:42;15.20;99.90
4643;DHT22;2334;48.710;9.622;2023-08-06T06:10:10;15.10;99.90
4643;DHT22;2334;48.710;9.622;2023-08-06T06:12:38;15.30;99.90
4643;DHT22;2334;48.710;9.622;2023-08-06T06:15:07;15.50;99.90
4643;DHT22;2334;48.710;9.622;2023-08-06T06:17:34;15.60;99.90
4643;DHT22;2334;48.710;9.622;2023-08-06T06:20:01;15.70;99.90
4643;DHT22;2334;48.710;9.622;2023-08-06T06:22:29;15.70;99.90
4643;DHT22;2334;48.710;9.622;2023-08-06T06:24:56;15.70;99.90
4643;DHT22;2334;48.710;9.622;2023-08-06T06:27:23;15.60;99.90
4643;DHT22;2334;48.710;9.622;2023-08-06T06:29:50;15.50;99.90
4643;DHT22;2334;48.710;9.622;2023-08-06T06:32:19;15.50;99.90
4643;DHT22;2334;48.710;9.622;2023-08-06T06:34:46;15.60;99.90
4643;DHT22;2334;48.710;9.622;2023-08-06T06:37:13;15.50;99.90
4643;DHT22;2334;48.710;9.622;2023-08-06T06:39:40;15.60;99.90
4643;DHT22;2334;48.710;9.622;2023-08-06T06:42:06;15.50;99.90
4643;DHT22;2334;48.710;9.622;2023-08-06T06:44:33;15.50;99.90
4643;DHT22;2334;48.710;9.622;2023-08-06T06:47:00;15.50;99.90
4643;DHT22;2334;48.710;9.622;2023-08-06T06:49:28;15.40;99.90
4643;DHT22;2334;48.710;9.622;2023-08-06T06:51:55;15.50;99.90
4643;DHT22;2334;48.710;9.622;2023-08-06T06:54:22;15.40;99.90
4643;DHT22;2334;48.710;9.622;2023-08-06T06:56:49;15.30;99.90
4643;DHT22;2334;48.710;9.622;2023-08-06T06:59:16;15.40;99.90
4643;DHT22;2334;48.710;9.622;2023-08-06T07:01:42;15.40;99.90
4643;DHT22;2334;48.710;9.622;2023-08-06T07:04:09;15.50;99.90
4643;DHT22;2334;48.710;9.622;2023-08-06T07:06:37;15.50;99.90
4643;DHT22;2334;48.710;9.622;2023-08-06T07:09:04;15.40;99.90
4643;DHT22;2334;48.710;9.622;2023-08-06T07:11:31;15.40;99.90
4643;DHT22;2334;48.710;9.622;2023-08-06T07:13:58;15.20;99.90
4643;DHT22;2334;48.710;9.622;2023-08-06T07:16:25;15.20;99.90
4643;DHT22;2334;48.710;9.622;2023-08-06T07:18:53;15.40;99.90
4643;DHT22;2334;48.710;9.622;2023-08-06T07:21:21;15.30;99.90
4643;DHT22;2334;48.710;9.622;2023-08-06T07:23:49;15.40;99.90
4643;DHT22;2334;48.710;9.622;2023-08-06T07:26:16;15.50;99.90
4643;DHT22;2334;48.710;9.622;2023-08-06T07:28:43;15.70;99.90
4643;DHT22;2334;48.710;9.622;2023-08-06T07:31:10;15.40;99.90
4643;DHT22;2334;48.710;9.622;2023-08-06T07:33:37;15.30;99.90
4643;DHT22;2334;48.710;9.622;2023-08-06T07:36:11;15.30;99.90
4643;DHT22;2334;48.710;9.622;2023-08-06T07:38:39;15.40;99.90
4643;DHT22;2334;48.710;9.622;2023-08-06T07:41:07;15.30;99.90
4643;DHT22;2334;48.710;9.622;2023-08-06T07:43:34;15.20;99.90
4643;DHT22;2334;48.710;9.622;2023-08-06T07:46:02;15.10;99.90
4643;DHT22;2334;48.710;9.622;2023-08-06T07:48:29;15.20;99.90
4643;DHT22;2334;48.710;9.622;2023-08-06T07:50:56;15.20;99.90
4643;DHT22;2334;48.710;9.622;2023-08-06T07:53:24;15.20;99.90
4643;DHT22;2334;48.710;9.622;2023-08-06T07:55:53;15.20;99.90
4643;DHT22;2334;48.710;9.622;2023-08-06T07:58:23;15.30;99.90
4643;DHT22;2334;48.710;9.622;2023-08-06T08:00:50;15.20;99.90
4643;DHT22;2334;48.710;9.622;2023-08-06T08:03:17;15.10;99.90
4643;DHT22;2334;48.710;9.622;2023-08-06T08:05:44;15.00;99.90
4643;DHT22;2334;48.710;9.622;2023-08-06T08:08:11;14.90;99.90
4643;DHT22;2334;48.710;9.622;2023-08-06T08:10:38;14.90;99.90
4643;DHT22;2334;48.710;9.622;2023-08-06T08:13:05;14.90;99.90
4643;DHT22;2334;48.710;9.622;2023-08-06T08:15:34;14.90;99.90
4643;DHT22;2334;48.710;9.622;2023-08-06T08:18:01;15.10;99.90
4643;DHT22;2334;48.710;9.622;2023-08-06T08:20:28;15.00;99.90
4643;DHT22;2334;48.710;9.622;2023-08-06T08:22:58;15.10;99.90
4643;DHT22;2334;48.710;9.622;2023-08-06T08:25:25;15.20;99.90
4643;DHT22;2334;48.710;9.622;2023-08-06T08:27:53;15.30;99.90
4643;DHT22;2334;48.710;9.622;2023-08-06T08:30:20;15.40;99.90
4643;DHT22;2334;48.710;9.622;2023-08-06T08:32:48;15.70;99.90
4643;DHT22;2334;48.710;9.622;2023-08-06T08:35:15;15.80;99.90
4643;DHT22;2334;48.710;9.622;2023-08-06T08:37:42;15.80;99.90
4643;DHT22;2334;48.710;9.622;2023-08-06T08:40:10;15.80;99.90
4643;DHT22;2334;48.710;9.622;2023-08-06T08:42:37;15.90;99.90
4643;DHT22;2334;48.710;9.622;2023-08-06T08:45:05;15.90;99.90
4643;DHT22;2334;48.710;9.622;2023-08-06T08:47:34;15.80;99.90
4643;DHT22;2334;48.710;9.622;2023-08-06T08:50:04;15.80;99.90
4643;DHT22;2334;48.710;9.622;2023-08-06T08:52:32;16.00;99.90
4643;DHT22;2334;48.710;9.622;2023-08-06T08:55:01;15.90;99.90
4643;DHT22;2334;48.710;9.622;2023-08-06T08:57:28;15.80;99.90
4643;DHT22;2334;48.710;9.622;2023-08-06T08:59:55;15.70;99.90
4643;DHT22;2334;48.710;9.622;2023-08-06T09:02:23;15.60;99.90
4643;DHT22;2334;48.710;9.622;2023-08-06T09:04:52;15.70;99.90
4643;DHT22;2334;48.710;9.622;2023-08-06T09:07:22;15.90;99.90
4643;DHT22;2334;48.710;9.622;2023-08-06T09:09:50;15.90;99.90
4643;DHT22;2334;48.710;9.622;2023-08-06T09:12:19;15.90;99.90
4643;DHT22;2334;48.710;9.622;2023-08-06T09:14:45;15.70;99.90
4643;DHT22;2334;48.710;9.622;2023-08-06T09:17:12;15.60;99.90
4643;DHT22;2334;48.710;9.622;2023-08-06T09:19:42;15.70;99.90
4643;DHT22;2334;48.710;9.622;2023-08-06T09:22:12;15.80;99.90
4643;DHT22;2334;48.710;9.622;2023-08-06T09:24:41;15.70;99.90
4643;DHT22;2334;48.710;9.622;2023-08-06T09:27:11;15.70;99.90
4643;DHT22;2334;48.710;9.622;2023-08-06T09:29:41;15.80;99.90
4643;DHT22;2334;48.710;9.622;2023-08-06T09:32:08;15.60;99.90
4643;DHT22;2334;48.710;9.622;2023-08-06T09:34:35;15.70;99.90
4643;DHT22;2334;48.710;9.622;2023-08-06T09:37:05;15.90;99.90
4643;DHT22;2334;48.710;9.622;2023-08-06T09:39:31;15.90;99.90
4643;DHT22;2334;48.710;9.622;2023-08-06T09:42:00;15.90;99.90
4643;DHT22;2334;48.710;9.622;2023-08-06T09:44:29;16.10;99.90
4643;DHT22;2334;48.710;9.622;2023-08-06T09:46:57;16.30;99.90
4643;DHT22;2334;48.710;9.622;2023-08-06T09:49:26;16.30;99.90
4643;DHT22;2334;48.710;9.622;2023-08-06T09:51:54;16.20;99.90
4643;DHT22;2334;48.710;9.622;2023-08-06T09:54:24;16.20;99.90
4643;DHT22;2334;48.710;9.622;2023-08-06T09:56:52;16.30;99.90
4643;DHT22;2334;48.710;9.622;2023-08-06T09:59:21;16.20;99.90
4643;DHT22;2334;48.710;9.622;2023-08-06T10:01:48;16.30;99.90
4643;DHT22;2334;48.710;9.622;2023-08-06T10:04:15;16.40;99.90
4643;DHT22;2334;48.710;9.622;2023-08-06T10:06:46;16.40;99.90
4643;DHT22;2334;48.710;9.622;2023-08-06T10:09:14;16.50;99.90
4643;DHT22;2334;48.710;9.622;2023-08-06T10:11:40;16.50;99.90
4643;DHT22;2334;48.710;9.622;2023-08-06T10:14:11;16.50;99.90
4643;DHT22;2334;48.710;9.622;2023-08-06T10:16:42;16.40;99.90
4643;DHT22;2334;48.710;9.622;2023-08-06T10:19:10;16.30;99.90
4643;DHT22;2334;48.710;9.622;2023-08-06T10:21:38;16.30;99.90
4643;DHT22;2334;48.710;9.622;2023-08-06T10:24:07;16.30;99.90
4643;DHT22;2334;48.710;9.622;2023-08-06T10:26:36;16.30;99.90
4643;DHT22;2334;48.710;9.622;2023-08-06T10:29:36;16.40;99.90
4643;DHT22;2334;48.710;9.622;2023-08-06T10:32:05;16.40;99.90
4643;DHT22;2334;48.710;9.622;2023-08-06T10:34:52;16.60;99.90
4643;DHT22;2334;48.710;9.622;2023-08-06T10:37:20;16.80;99.90
4643;DHT22;2334;48.710;9.622;2023-08-06T10:39:49;16.80;99.90
4643;DHT22;2334;48.710;9.622;2023-08-06T10:42:27;16.60;99.90
4643;DHT22;2334;48.710;9.622;2023-08-06T10:45:14;16.10;99.90
4643;DHT22;2334;48.710;9.622;2023-08-06T10:47:43;16.20;99.90
4643;DHT22;2334;48.710;9.622;2023-08-06T10:50:12;16.20;99.90
4643;DHT22;2334;48.710;9.622;2023-08-06T10:52:42;16.20;99.90
4643;DHT22;2334;48.710;9.622;2023-08-06T10:55:09;16.20;99.90
4643;DHT22;2334;48.710;9.622;2023-08-06T10:57:36;16.10;99.90
4643;DHT22;2334;48.710;9.622;2023-08-06T11:00:05;16.00;99.90
4643;DHT22;2334;48.710;9.622;2023-08-06T11:02:33;16.00;99.90
4643;DHT22;2334;48.710;9.622;2023-08-06T11:05:17;16.20;99.90
4643;DHT22;2334;48.710;9.622;2023-08-06T11:07:44;16.20;99.90
4643;DHT22;2334;48.710;9.622;2023-08-06T11:10:14;16.00;99.90
4643;DHT22;2334;48.710;9.622;2023-08-06T11:12:40;15.70;99.90
4643;DHT22;2334;48.710;9.622;2023-08-06T11:15:08;15.70;99.90
4643;DHT22;2334;48.710;9.622;2023-08-06T11:17:37;15.60;99.90
4643;DHT22;2334;48.710;9.622;2023-08-06T11:20:06;15.50;99.90
4643;DHT22;2334;48.710;9.622;2023-08-06T11:22:36;15.50;99.90
4643;DHT22;2334;48.710;9.622;2023-08-06T11:25:03;15.50;99.90
4643;DHT22;2334;48.710;9.622;2023-08-06T11:27:30;15.50;99.90
4643;DHT22;2334;48.710;9.622;2023-08-06T11:29:57;15.40;99.90
4643;DHT22;2334;48.710;9.622;2023-08-06T11:32:24;15.60;99.90
4643;DHT22;2334;48.710;9.622;2023-08-06T11:34:53;15.70;99.90
4643;DHT22;2334;48.710;9.622;2023-08-06T11:37:21;15.60;99.90
4643;DHT22;2334;48.710;9.622;2023-08-06T11:39:51;15.70;99.90
4643;DHT22;2334;48.710;9.622;2023-08-06T11:42:18;15.60;99.90
4643;DHT22;2334;48.710;9.622;2023-08-06T11:44:45;15.50;99.90
4643;DHT22;2334;48.710;9.622;2023-08-06T11:47:14;15.30;99.90
4643;DHT22;2334;48.710;9.622;2023-08-06T11:49:43;15.30;99.90
4643;DHT22;2334;48.710;9.622;2023-08-06T11:52:13;15.30;99.90
4643;DHT22;2334;48.710;9.622;2023-08-06T11:54:41;15.30;99.90
4643;DHT22;2334;48.710;9.622;2023-08-06T11:57:10;15.30;99.90
4643;DHT22;2334;48.710;9.622;2023-08-06T11:59:38;15.10;99.90
4643;DHT22;2334;48.710;9.622;2023-08-06T12:02:07;15.10;99.90
4643;DHT22;2334;48.710;9.622;2023-08-06T12:05:03;15.10;99.90
4643;DHT22;2334;48.710;9.622;2023-08-06T12:07:32;15.20;99.90
4643;DHT22;2334;48.710;9.622;2023-08-06T12:09:59;15.30;99.90
4643;DHT22;2334;48.710;9.622;2023-08-06T12:12:28;15.50;99.90
4643;DHT22;2334;48.710;9.622;2023-08-06T12:14:55;15.50;99.90
4643;DHT22;2334;48.710;9.622;2023-08-06T12:17:22;15.50;99.90
4643;DHT22;2334;48.710;9.622;2023-08-06T12:19:49;15.50;99.90
4643;DHT22;2334;48.710;9.622;2023-08-06T12:22:17;15.50;99.90
4643;DHT22;2334;48.710;9.622;2023-08-06T12:24:46;15.50;99.90
4643;DHT22;2334;48.710;9.622;2023-08-06T12:27:14;15.30;99.90
4643;DHT22;2334;48.710;9.622;2023-08-06T12:29:43;15.40;99.90
4643;DHT22;2334;48.710;9.622;2023-08-06T12:32:11;15.20;99.90
4643;DHT22;2334;48.710;9.622;2023-08-06T12:34:38;15.10;99.90
4643;DHT22;2334;48.710;9.622;2023-08-06T12:37:05;15.00;99.90
4643;DHT22;2334;48.710;9.622;2023-08-06T12:39:33;15.00;99.90
4643;DHT22;2334;48.710;9.622;2023-08-06T12:42:01;14.90;99.90
4643;DHT22;2334;48.710;9.622;2023-08-06T12:44:28;14.90;99.90
4643;DHT22;2334;48.710;9.622;2023-08-06T12:46:57;14.90;99.90
4643;DHT22;2334;48.710;9.622;2023-08-06T12:49:25;14.90;99.90
4643;DHT22;2334;48.710;9.622;2023-08-06T12:51:52;14.80;99.90
4643;DHT22;2334;48.710;9.622;2023-08-06T12:54:20;14.90;99.90
4643;DHT22;2334;48.710;9.622;2023-08-06T12:56:47;14.80;99.90
4643;DHT22;2334;48.710;9.622;2023-08-06T12:59:17;14.80;99.90
4643;DHT22;2334;48.710;9.622;2023-08-06T13:01:44;14.70;99.90
4643;DHT22;2334;48.710;9.622;2023-08-06T13:04:13;14.70;99.90
4643;DHT22;2334;48.710;9.622;2023-08-06T13:06:40;14.60;99.90
4643;DHT22;2334;48.710;9.622;2023-08-06T13:09:07;14.60;99.90
4643;DHT22;2334;48.710;9.622;2023-08-06T13:11:34;14.60;99.90
4643;DHT22;2334;48.710;9.622;2023-08-06T13:14:05;14.80;99.90
4643;DHT22;2334;48.710;9.622;2023-08-06T13:16:32;14.90;99.90
4643;DHT22;2334;48.710;9.622;2023-08-06T13:18:59;14.80;99.90
4643;DHT22;2334;48.710;9.622;2023-08-06T13:21:32;14.90;99.90
4643;DHT22;2334;48.710;9.622;2023-08-06T13:23:59;15.00;99.90
4643;DHT22;2334;48.710;9.622;2023-08-06T13:26:27;15.10;99.90
4643;DHT22;2334;48.710;9.622;2023-08-06T13:28:54;15.10;99.90
4643;DHT22;2334;48.710;9.622;2023-08-06T13:31:21;15.10;99.90
4643;DHT22;2334;48.710;9.622;2023-08-06T13:33:48;15.10;99.90
4643;DHT22;2334;48.710;9.622;2023-08-06T13:36:15;15.10;99.90
4643;DHT22;2334;48.710;9.622;2023-08-06T13:38:44;15.20;99.90
4643;DHT22;2334;48.710;9.622;2023-08-06T13:41:10;15.30;99.90
4643;DHT22;2334;48.710;9.622;2023-08-06T13:43:38;15.40;99.90
4643;DHT22;2334;48.710;9.622;2023-08-06T13:46:05;15.50;99.90
4643;DHT22;2334;48.710;9.622;2023-08-06T13:48:32;15.50;99.90
4643;DHT22;2334;48.710;9.622;2023-08-06T13:50:58;15.60;99.90
4643;DHT22;2334;48.710;9.622;2023-08-06T13:53:25;15.80;99.90
4643;DHT22;2334;48.710;9.622;2023-08-06T13:55:56;15.80;99.90
4643;DHT22;2334;48.710;9.622;2023-08-06T13:58:24;15.80;99.90
4643;DHT22;2334;48.710;9.622;2023-08-06T14:00:52;15.80;99.90
4643;DHT22;2334;48.710;9.622;2023-08-06T14:03:19;15.90;99.90
4643;DHT22;2334;48.710;9.622;2023-08-06T14:05:46;16.00;99.90
4643;DHT22;2334;48.710;9.622;2023-08-06T14:08:13;15.90;99.90
4643;DHT22;2334;48.710;9.622;2023-08-06T14:10:40;15.90;99.90
4643;DHT22;2334;48.710;9.622;2023-08-06T14:13:08;15.80;99.90
4643;DHT22;2334;48.710;9.622;2023-08-06T14:15:35;15.80;99.90
4643;DHT22;2334;48.710;9.622;2023-08-06T14:18:05;15.70;99.90
4643;DHT22;2334;48.710;9.622;2023-08-06T14:20:33;15.70;99.90
4643;DHT22;2334;48.710;9.622;2023-08-06T14:23:00;15.70;99.90
4643;DHT22;2334;48.710;9.622;2023-08-06T14:25:27;15.70;99.90
4643;DHT22;2334;48.710;9.622;2023-08-06T14:27:54;15.70;99.90
4643;DHT22;2334;48.710;9.622;2023-08-06T14:30:22;15.70;99.90
4643;DHT22;2334;48.710;9.622;2023-08-06T14:32:49;15.80;99.90
4643;DHT22;2334;48.710;9.622;2023-08-06T14:35:16;15.70;99.90
4643;DHT22;2334;48.710;9.622;2023-08-06T14:37:43;15.80;99.90
4643;DHT22;2334;48.710;9.622;2023-08-06T14:40:11;15.70;99.90
4643;DHT22;2334;48.710;9.622;2023-08-06T14:42:38;15.70;99.90
4643;DHT22;2334;48.710;9.622;2023-08-06T14:45:06;15.70;99.90
4643;DHT22;2334;48.710;9.622;2023-08-06T14:47:34;15.70;99.90
4643;DHT22;2334;48.710;9.622;2023-08-06T14:50:01;15.90;99.90
4643;DHT22;2334;48.710;9.622;2023-08-06T14:52:28;16.00;99.90
4643;DHT22;2334;48.710;9.622;2023-08-06T14:54:55;16.00;99.90
4643;DHT22;2334;48.710;9.622;2023-08-06T14:57:22;16.00;99.90
4643;DHT22;2334;48.710;9.622;2023-08-06T14:59:53;16.00;99.90
4643;DHT22;2334;48.710;9.622;2023-08-06T15:02:20;16.00;99.90
4643;DHT22;2334;48.710;9.622;2023-08-06T15:04:49;16.00;99.90
4643;DHT22;2334;48.710;9.622;2023-08-06T15:07:16;15.90;99.90
4643;DHT22;2334;48.710;9.622;2023-08-06T15:09:43;16.00;99.90
4643;DHT22;2334;48.710;9.622;2023-08-06T15:12:10;15.90;99.90
4643;DHT22;2334;48.710;9.622;2023-08-06T15:14:38;15.80;99.90
4643;DHT22;2334;48.710;9.622;2023-08-06T15:17:05;15.80;99.90
4643;DHT22;2334;48.710;9.622;2023-08-06T15:19:32;15.70;99.90
4643;DHT22;2334;48.710;9.622;2023-08-06T15:22:01;15.60;99.90
4643;DHT22;2334;48.710;9.622;2023-08-06T15:24:28;15.60;99.90
4643;DHT22;2334;48.710;9.622;2023-08-06T15:26:55;15.50;99.90
4643;DHT22;2334;48.710;9.622;2023-08-06T15:29:21;15.60;99.90
4643;DHT22;2334;48.710;9.622;2023-08-06T15:31:48;15.60;99.90
4643;DHT22;2334;48.710;9.622;2023-08-06T15:34:15;15.60;99.90
4643;DHT22;2334;48.710;9.622;2023-08-06T15:36:42;15.50;99.90
4643;DHT22;2334;48.710;9.622;2023-08-06T15:39:10;15.50;99.90
4643;DHT22;2334;48.710;9.622;2023-08-06T15:41:37;15.70;99.90
4643;DHT22;2334;48.710;9.622;2023-08-06T15:44:04;16.00;99.90
4643;DHT22;2334;48.710;9.622;2023-08-06T15:46:31;16.60;99.90
4643;DHT22;2334;48.710;9.622;2023-08-06T15:49:00;16.80;99.90
4643;DHT22;2334;48.710;9.622;2023-08-06T15:51:27;16.50;99.90
4643;DHT22;2334;48.710;9.622;2023-08-06T15:53:53;16.40;99.90
4643;DHT22;2334;48.710;9.622;2023-08-06T15:56:22;16.40;99.90
4643;DHT22;2334;48.710;9.622;2023-08-06T15:58:49;16.30;99.90
4643;DHT22;2334;48.710;9.622;2023-08-06T16:01:16;16.30;99.90
4643;DHT22;2334;48.710;9.622;2023-08-06T16:03:43;16.40;99.90
4643;DHT22;2334;48.710;9.622;2023-08-06T16:06:10;16.40;99.90